createdAt,value
2023-06-09T00:01:04.101Z,22.20
2023-06-09T00:03:33.255Z,22.20
2023-06-09T00:06:00.396Z,22.10
2023-06-09T00:08:27.777Z,22.10
2023-06-09T00:10:54.675Z,22.10
2023-06-09T00:13:21.782Z,22.10
2023-06-09T00:15:48.569Z,22.00
2023-06-09T00:18:17.371Z,22.00
2023-06-09T00:20:44.492Z,22.00
2023-06-09T00:23:11.314Z,22.00
2023-06-09T00:25:38.191Z,22.00
2023-06-09T00:28:05.235Z,22.00
2023-06-09T00:30:39.639Z,22.00
2023-06-09T00:33:07.476Z,22.00
2023-06-09T00:35:34.696Z,21.90
2023-06-09T00:38:01.642Z,21.80
2023-06-09T00:40:28.698Z,21.80
2023-06-09T00:42:56.205Z,21.90
2023-06-09T00:45:23.124Z,21.80
2023-06-09T00:47:50.490Z,21.70
2023-06-09T00:50:21.424Z,21.70
2023-06-09T00:52:49.463Z,21.70
2023-06-09T00:55:19.219Z,21.70
2023-06-09T00:57:48.758Z,21.70
2023-06-09T01:00:17.610Z,21.60
2023-06-09T01:02:44.905Z,21.50
2023-06-09T01:05:14.022Z,21.50
2023-06-09T01:07:42.232Z,21.50
2023-06-09T01:10:19.403Z,21.50
2023-06-09T01:13:07.209Z,21.50
2023-06-09T01:15:40.111Z,21.40
2023-06-09T01:18:13.819Z,21.30
2023-06-09T01:21:07.840Z,21.40
2023-06-09T01:23:55.972Z,21.30
2023-06-09T01:26:23.977Z,21.30
2023-06-09T01:28:52.251Z,21.30
2023-06-09T01:31:20.268Z,21.30
2023-06-09T01:33:47.852Z,21.30
2023-06-09T01:36:16.693Z,21.20
2023-06-09T01:38:44.094Z,21.30
2023-06-09T01:41:11.009Z,21.30
2023-06-09T01:43:37.855Z,21.30
2023-06-09T01:46:05.190Z,21.20
2023-06-09T01:49:00.426Z,21.20
2023-06-09T01:51:59.220Z,21.10
2023-06-09T01:54:30.879Z,21.10
2023-06-09T01:57:07.956Z,21.10
2023-06-09T01:59:56.744Z,21.10
2023-06-09T02:02:27.045Z,21.10
2023-06-09T02:04:56.270Z,21.10
2023-06-09T02:07:23.878Z,21.00
2023-06-09T02:09:51.091Z,21.00
2023-06-09T02:12:17.986Z,21.00
2023-06-09T02:14:44.896Z,21.00
2023-06-09T02:17:11.824Z,21.00
2023-06-09T02:19:39.973Z,20.90
2023-06-09T02:22:07.776Z,20.90
2023-06-09T02:24:36.048Z,20.90
2023-06-09T02:27:04.346Z,20.90
2023-06-09T02:29:31.436Z,20.80
2023-06-09T02:32:00.822Z,20.80
2023-06-09T02:34:28.514Z,20.90
2023-06-09T02:36:55.675Z,20.80
2023-06-09T02:39:23.199Z,20.80
2023-06-09T02:41:50.159Z,20.60
2023-06-09T02:44:17.228Z,20.70
2023-06-09T02:46:45.520Z,20.60
2023-06-09T02:49:13.067Z,20.60
2023-06-09T02:51:39.917Z,20.60
2023-06-09T02:54:06.734Z,20.60
2023-06-09T02:56:33.563Z,20.60
2023-06-09T02:59:00.340Z,20.60
2023-06-09T03:01:29.204Z,20.50
2023-06-09T03:03:56.285Z,20.50
2023-06-09T03:06:23.180Z,20.50
2023-06-09T03:08:50.060Z,20.50
2023-06-09T03:11:16.979Z,20.50
2023-06-09T03:13:43.885Z,20.30
2023-06-09T03:16:10.740Z,20.40
2023-06-09T03:18:37.640Z,20.40
2023-06-09T03:21:06.017Z,20.40
2023-06-09T03:23:33.984Z,20.30
2023-06-09T03:26:01.222Z,20.30
2023-06-09T03:28:28.189Z,20.30
2023-06-09T03:30:56.558Z,20.30
2023-06-09T03:33:25.500Z,20.30
2023-06-09T03:35:52.782Z,20.30
2023-06-09T03:38:19.539Z,20.20
2023-06-09T03:40:46.407Z,20.20
2023-06-09T03:43:13.311Z,20.20
2023-06-09T03:45:40.453Z,20.20
2023-06-09T03:48:08.374Z,20.20
2023-06-09T03:50:35.331Z,20.20
2023-06-09T03:53:02.202Z,20.20
2023-06-09T03:55:30.969Z,20.20
2023-06-09T03:57:57.911Z,20.20
2023-06-09T04:00:25.002Z,20.30
2023-06-09T04:02:51.931Z,20.20
2023-06-09T04:05:18.775Z,20.20
2023-06-09T04:07:45.780Z,20.20
2023-06-09T04:10:12.711Z,20.20
2023-06-09T04:12:42.541Z,20.10
2023-06-09T04:15:10.867Z,20.20
2023-06-09T04:17:39.007Z,20.20
2023-06-09T04:20:09.067Z,20.20
2023-06-09T04:22:36.780Z,20.30
2023-06-09T04:25:04.037Z,20.30
2023-06-09T04:27:31.791Z,20.30
2023-06-09T04:29:58.861Z,20.30
2023-06-09T04:32:26.250Z,20.30
2023-06-09T04:34:53.947Z,20.30
2023-06-09T04:37:21.568Z,20.40
2023-06-09T04:39:48.694Z,20.30
2023-06-09T04:42:20.561Z,20.40
2023-06-09T04:44:52.001Z,20.40
2023-06-09T04:47:19.595Z,20.40
2023-06-09T04:49:47.954Z,20.50
2023-06-09T04:52:18.726Z,20.50
2023-06-09T04:54:46.295Z,20.50
2023-06-09T04:57:13.289Z,20.50
2023-06-09T04:59:42.257Z,20.50
2023-06-09T05:02:12.300Z,20.50
2023-06-09T05:04:39.319Z,20.60
2023-06-09T05:07:07.840Z,20.60
2023-06-09T05:09:35.654Z,20.60
2023-06-09T05:12:02.521Z,20.60
2023-06-09T05:14:32.028Z,20.70
2023-06-09T05:17:01.248Z,20.80
2023-06-09T05:19:28.999Z,20.70
2023-06-09T05:21:58.110Z,20.80
2023-06-09T05:24:25.254Z,20.80
2023-06-09T05:26:52.056Z,20.90
2023-06-09T05:29:19.129Z,20.90
2023-06-09T05:31:46.053Z,21.00
2023-06-09T05:34:13.414Z,21.00
2023-06-09T05:36:40.456Z,20.90
2023-06-09T05:39:08.455Z,21.10
2023-06-09T05:41:35.730Z,21.10
2023-06-09T05:44:02.544Z,21.20
2023-06-09T05:46:29.507Z,21.30
2023-06-09T05:48:56.538Z,21.40
2023-06-09T05:51:23.481Z,21.50
2023-06-09T05:53:50.439Z,21.60
2023-06-09T05:56:18.137Z,21.70
2023-06-09T05:58:45.391Z,21.70
2023-06-09T06:01:15.166Z,21.70
2023-06-09T06:03:43.063Z,21.80
2023-06-09T06:06:11.755Z,21.90
2023-06-09T06:08:39.871Z,22.00
2023-06-09T06:11:06.785Z,22.10
2023-06-09T06:13:33.673Z,22.30
2023-06-09T06:16:01.515Z,22.40
2023-06-09T06:18:28.638Z,22.30
2023-06-09T06:20:55.560Z,22.60
2023-06-09T06:23:22.696Z,22.70
2023-06-09T06:25:49.526Z,23.00
2023-06-09T06:28:16.478Z,23.20
2023-06-09T06:30:43.568Z,23.50
2023-06-09T06:33:10.434Z,23.70
2023-06-09T06:35:37.358Z,23.90
2023-06-09T06:38:04.435Z,24.20
2023-06-09T06:40:32.508Z,24.30
2023-06-09T06:42:59.450Z,24.40
2023-06-09T06:45:29.372Z,24.60
2023-06-09T06:47:56.936Z,24.70
2023-06-09T06:50:26.105Z,24.70
2023-06-09T06:52:53.783Z,24.70
2023-06-09T06:55:20.703Z,24.50
2023-06-09T06:57:47.516Z,24.40
2023-06-09T07:00:17.516Z,24.40
2023-06-09T07:02:48.719Z,24.30
2023-06-09T07:05:17.116Z,24.20
2023-06-09T07:07:48.563Z,24.20
2023-06-09T07:10:15.588Z,24.10
2023-06-09T07:12:42.962Z,24.20
2023-06-09T07:15:10.342Z,24.50
2023-06-09T07:17:37.224Z,24.60
2023-06-09T07:20:05.261Z,24.80
2023-06-09T07:22:35.044Z,25.00
2023-06-09T07:25:02.300Z,25.10
2023-06-09T07:27:29.158Z,25.10
2023-06-09T07:29:56.299Z,25.30
2023-06-09T07:32:23.425Z,25.30
2023-06-09T07:34:51.881Z,25.30
2023-06-09T07:37:18.974Z,25.40
2023-06-09T07:39:46.021Z,25.50
2023-06-09T07:42:12.896Z,25.60
2023-06-09T07:44:41.169Z,25.70
2023-06-09T07:47:08.373Z,25.80
2023-06-09T07:49:36.089Z,25.90
2023-06-09T07:52:16.332Z,26.10
2023-06-09T07:54:47.586Z,26.30
2023-06-09T07:57:14.735Z,26.60
2023-06-09T07:59:41.503Z,27.00
2023-06-09T08:02:08.433Z,27.20
2023-06-09T08:04:35.507Z,27.60
2023-06-09T08:07:02.804Z,27.70
2023-06-09T08:09:29.726Z,27.90
2023-06-09T08:11:56.600Z,28.00
2023-06-09T08:14:23.546Z,28.20
2023-06-09T08:16:50.816Z,28.60
2023-06-09T08:19:17.779Z,28.90
2023-06-09T08:21:45.265Z,29.00
2023-06-09T08:24:12.723Z,29.00
2023-06-09T08:26:40.429Z,29.10
2023-06-09T08:29:07.979Z,29.00
2023-06-09T08:31:38.188Z,29.10
2023-06-09T08:34:05.071Z,29.20
2023-06-09T08:36:32.973Z,29.40
2023-06-09T08:38:59.982Z,29.60
2023-06-09T08:41:33.608Z,29.80
2023-06-09T08:44:00.906Z,29.80
2023-06-09T08:46:34.235Z,29.70
2023-06-09T08:49:01.792Z,29.50
2023-06-09T08:51:29.926Z,29.40
2023-06-09T08:53:57.963Z,29.10
2023-06-09T08:56:24.880Z,28.90
2023-06-09T08:58:53.463Z,28.90
2023-06-09T09:01:20.716Z,28.90
2023-06-09T09:03:48.975Z,28.80
2023-06-09T09:06:16.842Z,28.70
2023-06-09T09:08:45.213Z,28.70
2023-06-09T09:11:12.655Z,28.80
2023-06-09T09:13:41.670Z,28.80
2023-06-09T09:16:15.284Z,28.80
2023-06-09T09:18:47.079Z,28.80
2023-06-09T09:21:24.290Z,28.80
2023-06-09T09:24:13.012Z,28.80
2023-06-09T09:26:43.081Z,28.70
2023-06-09T09:29:10.632Z,28.70
2023-06-09T09:31:40.756Z,28.90
2023-06-09T09:34:14.984Z,28.80
2023-06-09T09:36:46.587Z,28.90
2023-06-09T09:39:14.238Z,28.90
2023-06-09T09:42:01.052Z,29.00
2023-06-09T09:44:42.302Z,29.00
2023-06-09T09:47:14.435Z,29.10
2023-06-09T09:50:02.266Z,29.00
2023-06-09T09:52:32.026Z,29.00
2023-06-09T09:55:08.814Z,29.10
2023-06-09T09:57:36.563Z,29.20
2023-06-09T10:00:09.886Z,29.10
2023-06-09T10:02:38.773Z,29.10
2023-06-09T10:05:08.454Z,29.10
2023-06-09T10:07:39.359Z,29.00
2023-06-09T10:10:09.869Z,29.00
2023-06-09T10:12:39.089Z,29.00
2023-06-09T10:15:09.877Z,29.00
2023-06-09T10:17:38.235Z,28.90
2023-06-09T10:20:06.855Z,28.90
2023-06-09T10:22:34.315Z,28.90
2023-06-09T10:25:01.906Z,28.90
2023-06-09T10:27:29.682Z,29.10
2023-06-09T10:29:56.873Z,29.10
2023-06-09T10:32:28.520Z,29.20
2023-06-09T10:34:58.958Z,29.40
2023-06-09T10:37:34.102Z,29.60
2023-06-09T10:40:19.039Z,29.90
2023-06-09T10:42:58.304Z,30.00
2023-06-09T10:45:49.447Z,30.20
2023-06-09T10:48:52.037Z,30.20
2023-06-09T10:51:28.088Z,30.20
2023-06-09T10:54:19.059Z,30.00
2023-06-09T10:57:01.682Z,29.80
2023-06-09T10:59:29.798Z,29.70
2023-06-09T11:02:05.920Z,29.50
2023-06-09T11:04:39.219Z,29.40
2023-06-09T11:07:14.930Z,29.50
2023-06-09T11:09:47.690Z,29.50
2023-06-09T11:12:30.606Z,29.50
2023-06-09T11:15:03.568Z,29.50
2023-06-09T11:17:39.063Z,29.60
2023-06-09T11:20:13.184Z,29.80
2023-06-09T11:22:43.802Z,29.70
2023-06-09T11:25:19.525Z,29.80
2023-06-09T11:28:10.473Z,29.70
2023-06-09T11:31:01.628Z,29.50
2023-06-09T11:33:47.268Z,29.50
2023-06-09T11:36:28.304Z,29.40
2023-06-09T11:39:05.382Z,29.40
2023-06-09T11:41:33.543Z,29.50
2023-06-09T11:44:01.117Z,29.60
2023-06-09T11:46:28.227Z,29.60
2023-06-09T11:49:02.718Z,29.70
2023-06-09T11:51:29.718Z,29.90
2023-06-09T11:53:56.577Z,29.80
2023-06-09T11:56:23.778Z,30.10
2023-06-09T11:58:54.169Z,30.10
2023-06-09T12:01:24.742Z,30.20
2023-06-09T12:03:51.802Z,30.20
2023-06-09T12:06:18.982Z,30.20
2023-06-09T12:08:46.530Z,30.20
2023-06-09T12:11:18.179Z,30.20
2023-06-09T12:13:49.571Z,30.20
2023-06-09T12:16:16.473Z,30.20
2023-06-09T12:18:43.496Z,30.20
2023-06-09T12:21:11.120Z,30.20
2023-06-09T12:23:39.214Z,30.20
2023-06-09T12:26:08.152Z,30.10
2023-06-09T12:28:35.764Z,30.10
2023-06-09T12:31:12.837Z,29.90
2023-06-09T12:33:46.509Z,29.90
2023-06-09T12:36:13.404Z,30.00
2023-06-09T12:38:46.748Z,30.10
2023-06-09T12:41:15.342Z,30.20
2023-06-09T12:43:49.347Z,30.30
2023-06-09T12:46:28.625Z,30.40
2023-06-09T12:49:02.709Z,30.40
2023-06-09T12:51:30.685Z,30.40
2023-06-09T12:53:58.177Z,30.40
2023-06-09T12:56:28.856Z,30.40
2023-06-09T12:58:56.068Z,30.50
2023-06-09T13:01:24.093Z,30.50
2023-06-09T13:03:51.845Z,30.50
2023-06-09T13:06:19.091Z,30.60
2023-06-09T13:08:46.337Z,30.60
2023-06-09T13:11:13.564Z,30.60
2023-06-09T13:13:41.533Z,30.70
2023-06-09T13:16:09.246Z,30.70
2023-06-09T13:18:39.468Z,30.60
2023-06-09T13:21:07.319Z,30.50
2023-06-09T13:23:34.295Z,30.50
2023-06-09T13:26:01.243Z,30.50
2023-06-09T13:28:28.305Z,30.30
2023-06-09T13:30:55.407Z,30.30
2023-06-09T13:33:22.717Z,30.30
2023-06-09T13:35:49.979Z,30.40
2023-06-09T13:38:16.791Z,30.30
2023-06-09T13:40:48.178Z,30.40
2023-06-09T13:43:16.310Z,30.30
2023-06-09T13:45:43.974Z,30.40
2023-06-09T13:48:12.337Z,30.30
2023-06-09T13:50:40.337Z,30.20
2023-06-09T13:53:07.472Z,30.20
2023-06-09T13:55:34.439Z,30.20
2023-06-09T13:58:01.419Z,30.10
2023-06-09T14:00:28.369Z,30.10
2023-06-09T14:02:55.988Z,30.10
2023-06-09T14:05:25.007Z,30.00
2023-06-09T14:07:52.132Z,30.00
2023-06-09T14:10:19.420Z,29.80
2023-06-09T14:12:49.457Z,29.70
2023-06-09T14:17:50.932Z,29.50
2023-06-09T14:20:21.224Z,29.50
2023-06-09T14:22:48.622Z,29.50
2023-06-09T14:25:19.704Z,29.50
2023-06-09T14:27:47.708Z,29.50
2023-06-09T14:30:15.626Z,29.60
2023-06-09T14:32:48.645Z,29.50
2023-06-09T14:35:23.332Z,29.50
2023-06-09T14:37:59.480Z,29.50
2023-06-09T14:40:30.363Z,29.40
2023-06-09T14:42:58.461Z,29.30
2023-06-09T14:45:26.210Z,29.40
2023-06-09T14:47:58.585Z,29.40
2023-06-09T14:50:37.283Z,29.50
2023-06-09T14:53:04.661Z,29.60
2023-06-09T14:55:33.830Z,29.80
2023-06-09T14:58:02.976Z,29.80
2023-06-09T15:00:31.329Z,29.70
2023-06-09T15:02:59.791Z,29.60
2023-06-09T15:05:31.470Z,29.60
2023-06-09T15:08:00.312Z,29.40
2023-06-09T15:10:28.835Z,29.50
2023-06-09T15:12:56.328Z,29.40
2023-06-09T15:15:27.160Z,29.40
2023-06-09T15:17:54.445Z,29.50
2023-06-09T15:20:22.522Z,29.40
2023-06-09T15:22:49.352Z,29.50
2023-06-09T15:25:16.255Z,29.40
2023-06-09T15:27:44.441Z,29.30
2023-06-09T15:30:13.042Z,29.30
2023-06-09T15:32:40.022Z,29.10
2023-06-09T15:35:07.513Z,28.90
2023-06-09T15:37:34.540Z,28.90
2023-06-09T15:40:04.283Z,28.70
2023-06-09T15:42:31.481Z,28.60
2023-06-09T15:44:59.580Z,28.50
2023-06-09T15:47:28.746Z,28.50
2023-06-09T15:49:56.164Z,28.50
2023-06-09T15:52:23.167Z,28.30
2023-06-09T15:54:50.052Z,28.30
2023-06-09T15:57:21.062Z,28.20
2023-06-09T15:59:47.897Z,28.20
2023-06-09T16:02:14.736Z,28.20
2023-06-09T16:04:41.613Z,28.20
2023-06-09T16:07:08.582Z,28.10
2023-06-09T16:09:35.433Z,28.00
2023-06-09T16:12:02.265Z,27.90
2023-06-09T16:14:29.504Z,27.90
2023-06-09T16:16:56.494Z,27.80
2023-06-09T16:19:23.375Z,27.80
2023-06-09T16:21:50.454Z,27.80
2023-06-09T16:24:17.495Z,27.70
2023-06-09T16:26:46.044Z,27.70
2023-06-09T16:29:13.038Z,27.70
2023-06-09T16:31:40.058Z,27.60
2023-06-09T16:34:06.995Z,27.60
2023-06-09T16:36:33.796Z,27.60
2023-06-09T16:39:00.997Z,27.70
2023-06-09T16:41:27.953Z,27.50
2023-06-09T16:43:56.193Z,27.50
2023-06-09T16:46:23.336Z,27.60
2023-06-09T16:48:50.623Z,27.50
2023-06-09T16:51:17.916Z,27.50
2023-06-09T16:53:45.159Z,27.50
2023-06-09T16:56:12.091Z,27.40
2023-06-09T16:58:38.940Z,27.50
2023-06-09T17:01:05.807Z,27.50
2023-06-09T17:03:32.854Z,27.50
2023-06-09T17:05:59.797Z,27.50
2023-06-09T17:08:27.847Z,27.40
2023-06-09T17:10:54.741Z,27.40
2023-06-09T17:13:22.681Z,27.30
2023-06-09T17:15:49.540Z,27.30
2023-06-09T17:18:16.480Z,27.30
2023-06-09T17:20:43.337Z,27.20
2023-06-09T17:23:10.260Z,27.10
2023-06-09T17:25:38.499Z,27.10
2023-06-09T17:28:05.329Z,27.10
2023-06-09T17:30:32.965Z,27.10
2023-06-09T17:32:59.962Z,27.10
2023-06-09T17:35:26.839Z,27.00
2023-06-09T17:37:53.669Z,27.00
2023-06-09T17:40:20.541Z,27.10
2023-06-09T17:42:47.324Z,27.00
2023-06-09T17:45:14.090Z,27.00
2023-06-09T17:47:41.315Z,27.00
2023-06-09T17:50:09.158Z,26.90
2023-06-09T17:52:36.620Z,27.00
2023-06-09T17:55:04.495Z,26.80
2023-06-09T17:57:39.820Z,26.70
2023-06-09T18:00:07.774Z,26.70
2023-06-09T18:02:34.688Z,26.70
2023-06-09T18:05:01.636Z,26.60
2023-06-09T18:07:28.652Z,26.60
2023-06-09T18:09:56.233Z,26.60
2023-06-09T18:12:23.093Z,26.50
2023-06-09T18:14:50.595Z,26.60
2023-06-09T18:17:17.420Z,26.50
2023-06-09T18:19:44.649Z,26.50
2023-06-09T18:22:11.454Z,26.50
2023-06-09T18:24:38.426Z,26.50
2023-06-09T18:27:06.430Z,26.40
2023-06-09T18:29:33.556Z,26.40
2023-06-09T18:32:01.807Z,26.30
2023-06-09T18:34:28.943Z,26.30
2023-06-09T18:36:55.815Z,26.30
2023-06-09T18:39:23.385Z,26.20
2023-06-09T18:41:50.704Z,26.20
2023-06-09T18:44:19.626Z,26.20
2023-06-09T18:46:47.139Z,26.20
2023-06-09T18:49:14.148Z,26.10
2023-06-09T18:51:41.752Z,26.20
2023-06-09T18:54:08.811Z,26.10
2023-06-09T18:56:36.315Z,26.10
2023-06-09T18:59:03.316Z,26.10
2023-06-09T19:01:30.337Z,26.00
2023-06-09T19:03:57.923Z,25.90
2023-06-09T19:06:25.693Z,26.00
2023-06-09T19:08:52.475Z,25.90
2023-06-09T19:11:19.571Z,25.90
2023-06-09T19:13:46.517Z,25.90
2023-06-09T19:16:13.545Z,25.90
2023-06-09T19:18:40.521Z,25.90
2023-06-09T19:21:07.530Z,25.80
2023-06-09T19:23:34.470Z,25.90
2023-06-09T19:26:02.370Z,25.80
2023-06-09T19:28:29.419Z,25.80
2023-06-09T19:30:56.469Z,25.90
2023-06-09T19:33:23.357Z,25.80
2023-06-09T19:35:50.324Z,25.80
2023-06-09T19:38:18.365Z,25.70
2023-06-09T19:40:45.883Z,25.80
2023-06-09T19:43:13.260Z,25.80
2023-06-09T19:45:40.212Z,25.80
2023-06-09T19:48:07.661Z,25.80
2023-06-09T19:50:38.060Z,25.80
2023-06-09T19:53:06.329Z,25.80
2023-06-09T19:55:33.570Z,25.70
2023-06-09T19:58:00.765Z,25.70
2023-06-09T20:00:27.803Z,25.60
2023-06-09T20:02:54.780Z,25.60
2023-06-09T20:05:21.948Z,25.50
2023-06-09T20:07:48.909Z,25.60
2023-06-09T20:10:15.894Z,25.60
2023-06-09T20:12:42.698Z,25.60
2023-06-09T20:15:10.526Z,25.50
2023-06-09T20:17:37.551Z,25.50
2023-06-09T20:20:05.512Z,25.40
2023-06-09T20:22:32.395Z,25.50
2023-06-09T20:24:59.206Z,25.50
2023-06-09T20:27:26.071Z,25.40
2023-06-09T20:29:53.951Z,25.40
2023-06-09T20:32:20.815Z,25.30
2023-06-09T20:34:47.967Z,25.30
2023-06-09T20:37:15.023Z,25.30
2023-06-09T20:39:42.407Z,25.10
2023-06-09T20:42:09.589Z,25.20
2023-06-09T20:44:37.252Z,25.20
2023-06-09T20:47:04.815Z,25.10
2023-06-09T20:49:31.753Z,25.10
2023-06-09T20:51:59.052Z,25.10
2023-06-09T20:54:25.942Z,25.10
2023-06-09T20:56:52.905Z,25.10
2023-06-09T20:59:19.751Z,25.00
2023-06-09T21:01:47.752Z,25.00
2023-06-09T21:04:16.976Z,25.00
2023-06-09T21:06:44.041Z,25.10
2023-06-09T21:09:11.811Z,25.00
2023-06-09T21:11:38.697Z,24.90
2023-06-09T21:14:05.838Z,25.00
2023-06-09T21:16:32.913Z,25.00
2023-06-09T21:19:00.023Z,25.00
2023-06-09T21:21:26.920Z,25.00
2023-06-09T21:23:53.848Z,25.00
2023-06-09T21:26:25.798Z,25.00
2023-06-09T21:28:53.558Z,25.00
2023-06-09T21:31:20.734Z,24.90
2023-06-09T21:33:47.720Z,24.90
2023-06-09T21:36:14.785Z,24.80
2023-06-09T21:38:42.017Z,24.90
2023-06-09T21:41:09.000Z,24.80
2023-06-09T21:43:35.942Z,24.70
2023-06-09T21:46:02.877Z,24.70
2023-06-09T21:48:30.012Z,24.70
2023-06-09T21:50:56.803Z,24.70
2023-06-09T21:53:23.606Z,24.70
2023-06-09T21:55:50.453Z,24.70
2023-06-09T21:58:17.281Z,24.70
2023-06-09T22:00:44.162Z,24.70
2023-06-09T22:03:12.990Z,24.60
2023-06-09T22:05:39.905Z,24.70
2023-06-09T22:08:06.779Z,24.70
2023-06-09T22:10:35.352Z,24.70
2023-06-09T22:13:02.252Z,24.80
2023-06-09T22:15:29.334Z,24.80
2023-06-09T22:17:56.704Z,24.70
2023-06-09T22:20:25.088Z,24.80
2023-06-09T22:22:51.997Z,24.80
2023-06-09T22:25:18.897Z,24.80
2023-06-09T22:27:47.039Z,24.80
2023-06-09T22:30:14.077Z,24.80
2023-06-09T22:32:41.111Z,24.70
2023-06-09T22:35:09.244Z,24.80
2023-06-09T22:37:36.380Z,24.70
2023-06-09T22:40:04.486Z,24.70
2023-06-09T22:42:31.443Z,24.80
2023-06-09T22:44:58.269Z,24.70
2023-06-09T22:47:25.189Z,24.70
2023-06-09T22:50:13.148Z,24.70
2023-06-09T22:52:46.256Z,24.70
2023-06-09T22:55:15.565Z,24.70
2023-06-09T22:57:43.804Z,24.80
2023-06-09T23:00:12.462Z,24.70
2023-06-09T23:02:42.899Z,24.70
2023-06-09T23:05:29.269Z,24.70
2023-06-09T23:07:56.343Z,24.70
2023-06-09T23:10:23.193Z,24.70
2023-06-09T23:12:50.099Z,24.70
2023-06-09T23:15:17.957Z,24.60
2023-06-09T23:17:44.932Z,24.60
2023-06-09T23:20:14.503Z,24.60
2023-06-09T23:22:41.561Z,24.60
2023-06-09T23:25:09.196Z,24.60
2023-06-09T23:27:37.523Z,24.60
2023-06-09T23:30:12.661Z,24.60
2023-06-09T23:32:40.861Z,24.60
2023-06-09T23:35:08.807Z,24.50
2023-06-09T23:37:38.042Z,24.50
2023-06-09T23:40:09.865Z,24.50
2023-06-09T23:42:37.757Z,24.50
2023-06-09T23:45:05.516Z,24.50
2023-06-09T23:47:32.473Z,24.50
2023-06-09T23:49:59.404Z,24.50
2023-06-09T23:52:26.319Z,24.60
2023-06-09T23:54:53.722Z,24.50
2023-06-09T23:57:20.738Z,24.50
2023-06-09T23:59:48.634Z,24.50
